Time;durP1;ratioP1;P1;durP2;ratioP2;P2;SDS_P1;SDS_P2;PMS_P1;PMS_P2;Temp;Humidity;BMP_temperature;BMP_pressure;BME280_temperature;BME280_humidity;BME280_pressure;Samples;Min_cycle;Max_cycle;Signal;HPM_P1;HPM_P2
2023/04/14 04:27:34;;;;;;;20.47;18.97;;;5.30;99.90;;;;;;5206459;23;20971;-75
2023/04/14 04:30:01;;;;;;;21.97;20.40;;;5.20;99.90;;;;;;4931650;29;20459;-75
2023/04/14 04:32:28;;;;;;;23.33;21.40;;;5.20;99.90;;;;;;4931359;29;20507;-75
2023/04/14 04:34:56;;;;;;;23.47;21.30;;;5.10;99.90;;;;;;4930822;29;20908;-76
2023/04/14 04:37:27;;;;;;;20.83;18.97;;;5.10;99.90;;;;;;4931236;29;20460;-77
2023/04/14 04:39:56;;;;;;;19.67;18.20;;;5.10;99.90;;;;;;4930851;29;20544;-75
2023/04/14 04:42:23;;;;;;;20.20;18.70;;;5.00;99.90;;;;;;4931821;29;20546;-82
2023/04/14 04:44:52;;;;;;;19.10;17.70;;;5.00;99.90;;;;;;4931797;29;20461;-77
2023/04/14 04:47:19;;;;;;;20.87;19.40;;;5.00;99.90;;;;;;4931500;29;20486;-77
2023/04/14 04:49:45;;;;;;;21.03;19.43;;;4.90;99.90;;;;;;4929469;29;20459;-72
2023/04/14 04:52:12;;;;;;;22.30;20.80;;;4.90;99.90;;;;;;4930136;29;20510;-71
2023/04/14 04:54:39;;;;;;;21.30;19.77;;;4.90;99.90;;;;;;4931369;29;20468;-70
2023/04/14 04:57:05;;;;;;;21.30;19.80;;;4.90;99.90;;;;;;4929806;29;20864;-73
2023/04/14 04:59:32;;;;;;;21.50;19.93;;;4.90;99.90;;;;;;4931282;29;20461;-71
2023/04/14 05:02:00;;;;;;;20.77;19.27;;;4.90;99.90;;;;;;4931226;29;20536;-71
2023/04/14 05:04:27;;;;;;;21.27;19.63;;;4.90;99.90;;;;;;4931208;29;20457;-71
2023/04/14 05:06:54;;;;;;;22.60;21.13;;;4.90;99.90;;;;;;4931543;29;20472;-71
2023/04/14 05:09:20;;;;;;;21.07;19.50;;;5.00;99.90;;;;;;4931383;29;20460;-71
2023/04/14 05:11:47;;;;;;;21.00;19.30;;;5.00;99.90;;;;;;4931113;29;20498;-72
2023/04/14 05:14:14;;;;;;;20.13;18.63;;;5.00;99.90;;;;;;4930931;29;20451;-70
2023/04/14 05:16:40;;;;;;;21.87;20.20;;;5.00;99.90;;;;;;4931183;29;20604;-70
2023/04/14 05:19:08;;;;;;;36.57;21.13;;;4.90;99.90;;;;;;4931184;29;20510;-71
2023/04/14 05:21:35;;;;;;;21.80;20.10;;;4.90;99.90;;;;;;4931380;29;20521;-72
2023/04/14 05:24:02;;;;;;;21.70;20.30;;;4.90;99.90;;;;;;4931348;29;20463;-70
2023/04/14 05:26:30;;;;;;;22.13;20.10;;;4.90;99.90;;;;;;4930648;29;20679;-72
2023/04/14 05:28:56;;;;;;;23.93;21.47;;;4.90;99.90;;;;;;4930692;29;20488;-74
2023/04/14 05:31:23;;;;;;;22.03;20.17;;;5.00;99.90;;;;;;4900897;29;20826;-71
2023/04/14 05:33:50;;;;;;;20.93;19.10;;;5.20;99.90;;;;;;4907674;29;20812;-72
2023/04/14 05:36:18;;;;;;;23.80;22.00;;;5.40;99.90;;;;;;4893328;29;20544;-71
2023/04/14 05:38:44;;;;;;;24.50;22.70;;;5.70;99.90;;;;;;4902467;29;20878;-70
2023/04/14 05:41:11;;;;;;;24.50;22.67;;;5.90;99.90;;;;;;4911842;29;20860;-71
2023/04/14 05:43:38;;;;;;;21.43;19.50;;;6.20;99.90;;;;;;4912295;29;21072;-71
2023/04/14 05:46:05;;;;;;;23.17;21.30;;;6.40;99.90;;;;;;4908812;29;20462;-71
2023/04/14 05:48:32;;;;;;;24.07;22.10;;;6.70;99.90;;;;;;4911908;29;20462;-72
2023/04/14 05:50:58;;;;;;;20.90;19.50;;;7.00;99.90;;;;;;4911954;29;21057;-72
2023/04/14 05:53:26;;;;;;;19.57;18.17;;;7.30;99.90;;;;;;4912055;29;20458;-73
2023/04/14 05:55:53;;;;;;;18.50;17.07;;;7.50;99.90;;;;;;4912255;29;20487;-73
2023/04/14 05:58:20;;;;;;;18.33;17.20;;;7.70;99.90;;;;;;4912116;29;20797;-70
2023/04/14 06:00:47;;;;;;;19.70;18.50;;;7.90;99.90;;;;;;4912177;29;20560;-71
2023/04/14 06:03:14;;;;;;;17.63;16.30;;;8.00;99.90;;;;;;4912219;29;21031;-71
2023/04/14 06:05:41;;;;;;;17.47;16.30;;;8.30;99.90;;;;;;4911960;29;20506;-72
2023/04/14 06:08:08;;;;;;;17.87;16.67;;;8.50;99.90;;;;;;4912332;29;20529;-71
2023/04/14 06:10:36;;;;;;;17.07;15.83;;;8.70;99.90;;;;;;4911901;29;20460;-73
2023/04/14 06:13:03;;;;;;;15.47;14.67;;;9.10;99.90;;;;;;4911638;29;20500;-75
2023/04/14 06:15:30;;;;;;;15.97;15.00;;;9.40;99.90;;;;;;4911976;29;20462;-73
2023/04/14 06:17:56;;;;;;;15.90;14.77;;;9.70;99.90;;;;;;4911827;29;20458;-71
2023/04/14 06:20:24;;;;;;;15.57;14.40;;;10.00;99.90;;;;;;4915865;29;20462;-72
2023/04/14 06:22:51;;;;;;;18.43;16.77;;;10.20;99.90;;;;;;4915742;29;20516;-72
2023/04/14 06:25:17;;;;;;;14.53;13.53;;;10.30;99.90;;;;;;4915349;29;20488;-71
2023/04/14 06:27:46;;;;;;;15.30;14.40;;;10.70;99.90;;;;;;4915381;29;20485;-72
2023/04/14 06:30:14;;;;;;;15.47;14.33;;;10.90;99.90;;;;;;4915489;29;20469;-72
2023/04/14 06:32:40;;;;;;;16.97;15.93;;;10.60;99.90;;;;;;4915572;29;20497;-73
2023/04/14 06:35:08;;;;;;;14.70;13.97;;;10.70;99.90;;;;;;4918251;29;20527;-71
2023/04/14 06:37:35;;;;;;;14.60;13.70;;;10.50;99.90;;;;;;4925655;29;20465;-71
2023/04/14 06:40:01;;;;;;;12.93;12.23;;;10.40;99.90;;;;;;4935592;29;20461;-71
2023/04/14 06:42:28;;;;;;;13.63;12.63;;;10.30;99.90;;;;;;4935055;29;20476;-72
2023/04/14 06:44:56;;;;;;;15.80;14.73;;;10.40;99.90;;;;;;4934458;29;20855;-73
2023/04/14 06:47:24;;;;;;;15.97;14.53;;;10.30;99.90;;;;;;4934649;29;20820;-71
2023/04/14 06:49:50;;;;;;;15.63;14.73;;;10.20;99.90;;;;;;4934355;29;20969;-72
2023/04/14 06:52:17;;;;;;;16.50;15.33;;;10.10;99.90;;;;;;4934134;29;20493;-71
2023/04/14 06:54:44;;;;;;;16.10;14.20;;;10.00;99.90;;;;;;4933736;29;20457;-71
2023/04/14 06:57:10;;;;;;;15.90;14.10;;;9.90;99.90;;;;;;4933884;29;20465;-71
2023/04/14 06:59:37;;;;;;;15.50;14.40;;;9.70;99.90;;;;;;4934054;29;20475;-71
2023/04/14 07:02:06;;;;;;;16.47;15.43;;;9.70;99.90;;;;;;4933873;29;20516;-71
2023/04/14 07:04:35;;;;;;;16.00;14.57;;;9.50;99.90;;;;;;4933563;29;20465;-72
2023/04/14 07:07:01;;;;;;;13.80;12.80;;;9.80;99.90;;;;;;4933632;29;20472;-72
2023/04/14 07:09:28;;;;;;;12.10;11.50;;;10.40;99.90;;;;;;4933737;29;20458;-71
2023/04/14 07:11:56;;;;;;;13.90;12.63;;;10.80;99.90;;;;;;4933596;29;20539;-71
2023/04/14 07:14:23;;;;;;;13.17;12.47;;;11.10;99.90;;;;;;4933947;29;20500;-72
2023/04/14 07:16:50;;;;;;;13.50;12.80;;;11.80;99.90;;;;;;4933776;29;20454;-74
2023/04/14 07:19:18;;;;;;;14.00;13.10;;;12.20;99.90;;;;;;4933613;29;20454;-72
2023/04/14 07:21:45;;;;;;;13.70;12.70;;;12.50;99.90;;;;;;4933416;29;20583;-73
2023/04/14 07:24:12;;;;;;;12.33;11.63;;;13.00;99.90;;;;;;4933462;29;20460;-74
2023/04/14 07:26:38;;;;;;;14.03;12.73;;;13.60;99.90;;;;;;4933188;29;20493;-73
2023/04/14 07:29:05;;;;;;;12.60;12.00;;;13.80;98.80;;;;;;4933237;29;20464;-72
2023/04/14 07:31:33;;;;;;;13.40;12.50;;;14.00;98.70;;;;;;4932093;29;20472;-73
2023/04/14 07:34:00;;;;;;;13.73;12.67;;;14.30;97.50;;;;;;4933038;29;20545;-72
2023/04/14 07:36:30;;;;;;;11.70;11.00;;;14.50;96.30;;;;;;4933057;29;20454;-72
2023/04/14 07:38:56;;;;;;;12.60;11.90;;;14.60;97.40;;;;;;4933083;29;20469;-72
2023/04/14 07:41:24;;;;;;;13.27;12.17;;;14.90;96.10;;;;;;4933252;29;20464;-72
2023/04/14 07:43:54;;;;;;;15.13;13.90;;;15.40;95.00;;;;;;4933337;29;20457;-73
2023/04/14 07:46:21;;;;;;;14.60;13.80;;;16.00;93.80;;;;;;4933175;29;20456;-72
2023/04/14 07:48:47;;;;;;;13.80;12.67;;;16.30;92.40;;;;;;4932801;29;20962;-73
2023/04/14 07:51:14;;;;;;;13.60;12.60;;;17.00;91.30;;;;;;4932774;29;20457;-73
2023/04/14 07:53:43;;;;;;;14.17;13.23;;;17.70;88.20;;;;;;4932775;29;20500;-73
2023/04/14 07:56:11;;;;;;;14.60;13.50;;;18.20;84.00;;;;;;4933023;29;20459;-73
2023/04/14 07:58:38;;;;;;;13.83;12.80;;;19.00;83.40;;;;;;4933073;29;20457;-73
2023/04/14 08:01:05;;;;;;;13.67;13.07;;;19.20;79.70;;;;;;4932831;29;20458;-72
2023/04/14 08:03:31;;;;;;;15.70;14.60;;;19.60;77.30;;;;;;4932728;29;20533;-72
2023/04/14 08:05:58;;;;;;;13.30;12.60;;;19.40;77.50;;;;;;4932650;29;20457;-72
2023/04/14 08:08:25;;;;;;;14.03;12.93;;;18.60;77.70;;;;;;4932837;29;20461;-72
2023/04/14 08:10:53;;;;;;;13.70;12.80;;;18.60;78.30;;;;;;4932719;29;20461;-72
2023/04/14 08:13:20;;;;;;;14.57;13.67;;;19.00;78.00;;;;;;4932547;29;20493;-73
2023/04/14 08:15:46;;;;;;;13.03;12.33;;;19.90;75.40;;;;;;4932446;29;20457;-73
2023/04/14 08:18:13;;;;;;;13.20;12.30;;;20.10;74.00;;;;;;4932226;29;20456;-73
2023/04/14 08:20:40;;;;;;;13.43;12.43;;;21.00;73.10;;;;;;4932761;29;20961;-74
2023/04/14 08:23:07;;;;;;;14.57;13.70;;;21.20;70.90;;;;;;4932921;29;20457;-73
2023/04/14 08:25:33;;;;;;;12.97;12.37;;;21.30;70.10;;;;;;4932305;29;20827;-73
2023/04/14 08:28:01;;;;;;;13.27;12.20;;;21.40;68.80;;;;;;4932026;29;20481;-73
2023/04/14 08:30:28;;;;;;;14.30;13.43;;;21.20;69.20;;;;;;4932052;29;20939;-73
2023/04/14 08:32:55;;;;;;;13.23;12.40;;;21.60;69.30;;;;;;4932174;29;20524;-74
2023/04/14 08:35:24;;;;;;;12.53;11.83;;;21.90;67.50;;;;;;4932481;29;20512;-73
2023/04/14 08:37:51;;;;;;;13.60;12.70;;;21.70;67.00;;;;;;4932233;29;20821;-72
2023/04/14 08:40:19;;;;;;;13.10;12.10;;;21.60;66.10;;;;;;4931884;29;20465;-72
2023/04/14 08:42:45;;;;;;;13.57;12.23;;;22.10;65.20;;;;;;4931312;29;20457;-73
2023/04/14 08:45:13;;;;;;;14.17;13.37;;;22.20;62.30;;;;;;4931842;29;20461;-75
2023/04/14 08:47:41;;;;;;;13.00;11.93;;;21.70;62.90;;;;;;4931814;29;20469;-73
2023/04/14 08:50:13;;;;;;;14.13;13.23;;;21.10;64.70;;;;;;4932051;29;20544;-71
2023/04/14 08:52:41;;;;;;;12.40;11.70;;;20.60;67.30;;;;;;4932012;29;20567;-73
2023/04/14 08:55:09;;;;;;;13.20;12.50;;;21.30;67.10;;;;;;4931853;29;20572;-74
2023/04/14 08:57:36;;;;;;;13.33;12.47;;;22.10;65.80;;;;;;4931933;29;20565;-73
2023/04/14 09:00:03;;;;;;;13.80;12.80;;;22.30;64.70;;;;;;4931419;29;20453;-73
2023/04/14 09:02:32;;;;;;;12.53;11.67;;;21.40;65.00;;;;;;4931368;29;20454;-73
2023/04/14 09:04:59;;;;;;;13.03;11.93;;;21.50;64.30;;;;;;4931314;29;20481;-73
2023/04/14 09:07:27;;;;;;;11.70;11.00;;;21.40;64.80;;;;;;4931370;29;20568;-73
2023/04/14 09:09:54;;;;;;;11.17;10.57;;;20.80;61.90;;;;;;4931563;29;20453;-73
2023/04/14 09:12:22;;;;;;;11.83;10.73;;;20.80;62.70;;;;;;4931363;29;20498;-73
2023/04/14 09:14:52;;;;;;;11.40;10.80;;;21.20;61.80;;;;;;4931113;29;20739;-73
2023/04/14 09:17:19;;;;;;;12.20;11.30;;;22.00;58.40;;;;;;4931299;29;20453;-74
2023/04/14 09:19:48;;;;;;;11.57;10.97;;;21.80;58.10;;;;;;4931078;29;20470;-73
2023/04/14 09:22:15;;;;;;;11.90;10.90;;;21.70;66.70;;;;;;4931039;29;20454;-76
2023/04/14 09:24:42;;;;;;;11.67;10.97;;;21.70;58.70;;;;;;4930725;29;20449;-76
2023/04/14 09:27:09;;;;;;;11.37;10.77;;;22.20;58.50;;;;;;4931195;29;20486;-74
2023/04/14 09:29:37;;;;;;;11.20;10.63;;;22.90;56.60;;;;;;4932046;29;20453;-75
2023/04/14 09:32:04;;;;;;;11.33;10.73;;;24.00;55.40;;;;;;4930882;29;20453;-76
2023/04/14 09:34:31;;;;;;;13.33;12.50;;;23.90;53.90;;;;;;4933006;29;20647;-75
2023/04/14 09:37:04;;;;;;;11.70;11.00;;;24.30;53.20;;;;;;4935313;29;20975;-76
2023/04/14 09:39:31;;;;;;;11.73;11.03;;;23.80;53.90;;;;;;4931856;29;20766;-74
2023/04/14 09:41:58;;;;;;;12.07;11.43;;;24.00;53.50;;;;;;4931537;29;20964;-74
2023/04/14 09:44:25;;;;;;;11.10;10.60;;;23.50;54.20;;;;;;4931787;29;20461;-75
2023/04/14 09:47:01;;;;;;;11.27;10.43;;;23.30;52.40;;;;;;4931431;29;20457;-75
2023/04/14 09:49:29;;;;;;;11.70;10.90;;;21.60;54.40;;;;;;4931148;29;20480;-75
2023/04/14 09:52:04;;;;;;;11.03;10.30;;;21.10;55.40;;;;;;4931452;29;20465;-74
2023/04/14 09:54:31;;;;;;;11.37;10.67;;;21.80;56.20;;;;;;4933353;29;20490;-76
2023/04/14 09:56:57;;;;;;;12.23;11.43;;;22.90;55.10;;;;;;4934858;29;20464;-75
2023/04/14 09:59:32;;;;;;;13.00;11.90;;;23.70;52.70;;;;;;4935127;29;20528;-76
2023/04/14 10:02:00;;;;;;;12.30;11.30;;;23.40;53.00;;;;;;4934642;29;20453;-75
2023/04/14 10:04:27;;;;;;;11.87;11.10;;;22.70;53.50;;;;;;4934588;29;20446;-75
2023/04/14 10:06:56;;;;;;;13.10;12.00;;;23.80;51.80;;;;;;4934907;29;20552;-75
2023/04/14 10:09:26;;;;;;;11.60;10.70;;;24.00;50.90;;;;;;4934804;29;20453;-76
2023/04/14 10:12:11;;;;;;;11.60;11.00;;;23.30;50.60;;;;;;4934883;29;20485;-74
2023/04/14 10:14:38;;;;;;;11.73;11.10;;;22.90;51.80;;;;;;4934700;29;20492;-75
2023/04/14 10:17:05;;;;;;;12.33;11.60;;;23.50;51.90;;;;;;4934630;29;20540;-75
2023/04/14 10:19:32;;;;;;;13.03;12.03;;;24.30;51.70;;;;;;4934489;29;20552;-75
2023/04/14 10:21:59;;;;;;;13.83;12.77;;;24.90;51.20;;;;;;4934795;29;20749;-75
2023/04/14 10:24:27;;;;;;;11.90;11.30;;;24.60;51.00;;;;;;4934696;29;20813;-75
2023/04/14 10:26:54;;;;;;;11.63;11.00;;;24.70;50.10;;;;;;4934200;29;20488;-75
2023/04/14 10:29:21;;;;;;;11.90;11.20;;;24.80;50.00;;;;;;4934457;29;20528;-75
2023/04/14 10:31:52;;;;;;;12.27;11.47;;;25.40;49.90;;;;;;4934242;29;20453;-75
2023/04/14 10:34:21;;;;;;;12.80;12.10;;;25.60;49.50;;;;;;4934271;29;20485;-74
2023/04/14 10:36:48;;;;;;;15.23;12.67;;;25.10;50.10;;;;;;4934457;29;20826;-76
2023/04/14 10:39:21;;;;;;;12.67;11.87;;;24.70;50.40;;;;;;4934135;29;20512;-76
2023/04/14 10:41:50;;;;;;;13.73;12.70;;;25.10;48.30;;;;;;4934102;29;20520;-75
2023/04/14 10:44:24;;;;;;;13.13;12.17;;;24.50;48.50;;;;;;4934062;29;20828;-75
2023/04/14 10:46:52;;;;;;;12.70;11.90;;;24.10;48.50;;;;;;4933948;29;20453;-75
2023/04/14 10:49:24;;;;;;;12.07;11.27;;;23.80;50.10;;;;;;4933811;29;20888;-76
2023/04/14 10:51:51;;;;;;;13.27;12.47;;;24.50;49.30;;;;;;4934090;29;20449;-74
2023/04/14 10:54:18;;;;;;;12.80;11.97;;;23.70;49.00;;;;;;4933518;29;20840;-74
2023/04/14 10:57:14;;;;;;;13.80;12.90;;;24.90;48.50;;;;;;4933614;29;21035;-75
2023/04/14 10:59:42;;;;;;;13.20;12.40;;;26.10;47.00;;;;;;4933672;29;20841;-74
2023/04/14 11:02:26;;;;;;;13.47;12.80;;;26.40;46.30;;;;;;4933728;29;20565;-75
2023/04/14 11:05:05;;;;;;;14.10;13.17;;;27.00;44.70;;;;;;4933544;29;20825;-76
2023/04/14 11:07:36;;;;;;;13.43;12.63;;;27.30;43.80;;;;;;4933941;29;20503;-75
2023/04/14 11:10:25;;;;;;;14.03;13.10;;;25.80;45.40;;;;;;4933792;29;20453;-76
2023/04/14 11:12:57;;;;;;;13.77;12.83;;;25.10;46.10;;;;;;4933827;29;20511;-76
2023/04/14 11:15:24;;;;;;;12.30;11.60;;;24.10;47.10;;;;;;4933565;29;20453;-74
2023/04/14 11:17:51;;;;;;;12.00;11.00;;;22.80;48.40;;;;;;4933682;29;20834;-77
2023/04/14 11:20:19;;;;;;;11.77;10.90;;;23.10;48.00;;;;;;4933320;29;20529;-76
2023/04/14 11:22:49;;;;;;;12.53;11.70;;;23.90;45.20;;;;;;4933118;29;20450;-77
2023/04/14 11:25:17;;;;;;;13.00;12.37;;;23.70;44.80;;;;;;4933087;29;20473;-76
2023/04/14 11:27:47;;;;;;;13.17;12.57;;;24.00;43.40;;;;;;4932925;29;20477;-74
2023/04/14 11:30:17;;;;;;;12.60;11.70;;;24.70;42.40;;;;;;4932946;29;21031;-74
2023/04/14 11:32:49;;;;;;;13.63;12.80;;;24.00;44.40;;;;;;4932655;29;20449;-76
2023/04/14 11:35:17;;;;;;;14.10;13.20;;;24.50;44.30;;;;;;4933013;29;20465;-75
2023/04/14 11:37:44;;;;;;;14.33;13.63;;;25.20;43.70;;;;;;4932745;29;20583;-75
2023/04/14 11:40:12;;;;;;;13.20;12.17;;;25.80;43.70;;;;;;4932840;29;20457;-74
2023/04/14 11:42:43;;;;;;;12.50;11.60;;;26.30;42.00;;;;;;4933104;29;20453;-73
2023/04/14 11:45:14;;;;;;;12.10;11.40;;;25.90;40.80;;;;;;4933108;29;20479;-75
2023/04/14 11:47:47;;;;;;;13.80;13.00;;;25.60;41.60;;;;;;4933344;29;20528;-76
2023/04/14 11:50:16;;;;;;;12.73;11.93;;;26.00;42.30;;;;;;4932952;29;20457;-75
2023/04/14 11:52:45;;;;;;;13.03;12.23;;;25.60;41.00;;;;;;4932768;29;20469;-75
2023/04/14 11:55:13;;;;;;;11.80;11.40;;;25.90;41.00;;;;;;4932748;29;20457;-75
2023/04/14 11:57:44;;;;;;;12.47;11.97;;;26.10;40.00;;;;;;4932973;29;20470;-76
2023/04/14 12:00:12;;;;;;;12.50;11.90;;;26.00;38.20;;;;;;4933229;29;20505;-75
2023/04/14 12:02:38;;;;;;;12.37;11.60;;;25.70;37.90;;;;;;4932723;29;20944;-75
2023/04/14 12:05:08;;;;;;;12.50;11.90;;;25.40;38.40;;;;;;4932585;29;20456;-74
2023/04/14 12:07:35;;;;;;;11.83;11.23;;;26.30;38.30;;;;;;4932294;29;20457;-74
2023/04/14 12:10:05;;;;;;;14.07;13.37;;;26.80;38.20;;;;;;4932238;29;20456;-74
2023/04/14 12:12:32;;;;;;;13.43;12.40;;;27.70;38.50;;;;;;4932337;29;20564;-74
2023/04/14 12:15:00;;;;;;;12.43;11.70;;;27.70;38.40;;;;;;4931981;29;20910;-75
2023/04/14 12:17:27;;;;;;;13.60;12.90;;;27.70;37.20;;;;;;4931159;29;20469;-75
2023/04/14 12:19:53;;;;;;;12.97;12.37;;;26.70;37.10;;;;;;4932299;29;20456;-75
2023/04/14 12:22:26;;;;;;;12.90;12.20;;;25.20;38.60;;;;;;4931997;29;20590;-75
2023/04/14 12:24:53;;;;;;;12.97;12.27;;;25.30;39.30;;;;;;4932213;29;20582;-75
2023/04/14 12:27:20;;;;;;;12.60;11.80;;;24.60;39.00;;;;;;4942006;29;20485;-76
2023/04/14 12:29:48;;;;;;;12.33;11.43;;;24.80;40.20;;;;;;4934471;29;20500;-76
2023/04/14 12:32:16;;;;;;;12.97;12.17;;;25.70;38.30;;;;;;4932506;29;20952;-76
2023/04/14 12:34:53;;;;;;;12.07;11.50;;;26.30;36.40;;;;;;4932467;29;20504;-75
2023/04/14 12:37:26;;;;;;;12.17;11.67;;;24.30;36.90;;;;;;4932529;29;20485;-76
2023/04/14 12:39:56;;;;;;;12.77;12.17;;;23.90;38.60;;;;;;4932106;29;20528;-76
2023/04/14 12:42:23;;;;;;;11.97;11.47;;;23.40;38.90;;;;;;4932164;29;20457;-76
2023/04/14 12:44:57;;;;;;;12.00;11.30;;;23.50;38.60;;;;;;4931926;29;20477;-75
2023/04/14 12:47:29;;;;;;;11.70;11.00;;;23.30;38.60;;;;;;4931726;29;20464;-74
2023/04/14 12:49:55;;;;;;;12.10;11.10;;;22.70;39.00;;;;;;4931591;29;20521;-74
2023/04/14 12:52:38;;;;;;;11.67;11.13;;;23.00;39.60;;;;;;4931875;29;20461;-77
2023/04/14 12:55:07;;;;;;;11.73;11.20;;;23.10;40.30;;;;;;4931703;29;20496;-74
2023/04/14 12:57:34;;;;;;;10.87;10.33;;;23.10;40.50;;;;;;4931240;29;20449;-74
2023/04/14 13:00:03;;;;;;;11.50;10.80;;;22.50;40.00;;;;;;4931296;29;20457;-76
2023/04/14 13:02:30;;;;;;;11.50;10.50;;;21.70;40.80;;;;;;4931142;29;21255;-75
2023/04/14 13:04:57;;;;;;;11.10;10.50;;;22.20;41.10;;;;;;4931238;29;20560;-75
2023/04/14 13:07:24;;;;;;;10.40;9.80;;;21.80;39.70;;;;;;4931591;29;20465;-82
2023/04/14 13:09:52;;;;;;;10.43;9.93;;;21.50;41.30;;;;;;4931236;29;20465;-76
2023/04/14 13:12:19;;;;;;;11.40;10.70;;;22.00;41.10;;;;;;4931025;29;20461;-75
2023/04/14 13:14:45;;;;;;;9.90;9.30;;;22.80;40.00;;;;;;4931033;29;20703;-75
2023/04/14 13:17:12;;;;;;;10.63;10.10;;;22.60;38.80;;;;;;4931162;29;20468;-75
2023/04/14 13:19:39;;;;;;;10.50;10.00;;;21.70;38.50;;;;;;4931342;29;20565;-76
2023/04/14 13:22:05;;;;;;;10.70;10.00;;;22.20;38.30;;;;;;4931352;29;20456;-76
2023/04/14 13:24:32;;;;;;;10.40;10.00;;;21.90;38.20;;;;;;4931224;29;20856;-76
2023/04/14 13:27:00;;;;;;;10.73;10.23;;;21.30;38.80;;;;;;4930943;29;20512;-76
2023/04/14 13:29:27;;;;;;;9.63;9.30;;;20.80;40.20;;;;;;4931060;29;20469;-76
2023/04/14 13:31:54;;;;;;;10.10;9.60;;;21.00;39.30;;;;;;4931474;29;20469;-75
2023/04/14 13:34:20;;;;;;;10.53;9.83;;;20.70;39.30;;;;;;4931025;29;20489;-76
2023/04/14 13:36:47;;;;;;;10.53;9.90;;;20.80;39.90;;;;;;4931048;29;20576;-76
2023/04/14 13:39:14;;;;;;;11.03;10.23;;;20.50;40.90;;;;;;4930683;29;20449;-75
2023/04/14 13:41:41;;;;;;;10.53;10.00;;;19.60;40.90;;;;;;4931126;29;20494;-76
2023/04/14 13:44:09;;;;;;;10.53;10.07;;;19.80;41.60;;;;;;4931126;29;20457;-76
2023/04/14 13:46:35;;;;;;;10.90;10.40;;;20.60;40.40;;;;;;4930083;29;20458;-76
2023/04/14 13:49:02;;;;;;;11.10;10.60;;;21.10;39.20;;;;;;4930457;29;20924;-75
2023/04/14 13:51:29;;;;;;;11.57;10.87;;;21.10;39.00;;;;;;4932064;29;20790;-75
2023/04/14 13:53:55;;;;;;;11.37;10.57;;;22.30;37.70;;;;;;4930390;29;20588;-75
2023/04/14 13:56:24;;;;;;;11.17;10.57;;;22.00;37.30;;;;;;4931016;29;20488;-76
2023/04/14 13:58:51;;;;;;;11.13;10.63;;;21.60;37.70;;;;;;4930611;29;20462;-76
2023/04/14 14:01:19;;;;;;;11.00;10.50;;;21.80;37.40;;;;;;4930639;29;20480;-75
2023/04/14 14:03:48;;;;;;;11.50;10.93;;;21.80;38.70;;;;;;4930701;29;20454;-75
2023/04/14 14:06:15;;;;;;;11.80;11.00;;;21.30;37.70;;;;;;4931259;29;20453;-75
2023/04/14 14:08:42;;;;;;;11.07;10.57;;;21.10;38.30;;;;;;4931921;29;20464;-75
2023/04/14 14:11:09;;;;;;;10.20;9.70;;;21.10;38.20;;;;;;4930793;29;20465;-76
2023/04/14 14:13:37;;;;;;;10.80;10.27;;;21.00;38.30;;;;;;4930751;29;20457;-76
2023/04/14 14:16:05;;;;;;;11.93;11.43;;;21.10;37.80;;;;;;4930439;29;20457;-76
2023/04/14 14:18:33;;;;;;;11.53;10.93;;;20.70;38.80;;;;;;4929834;29;20457;-76
2023/04/14 14:21:00;;;;;;;10.97;10.40;;;20.20;39.00;;;;;;4930159;29;20468;-75
2023/04/14 14:23:26;;;;;;;11.23;10.73;;;20.00;39.00;;;;;;4930215;29;20465;-75
2023/04/14 14:25:53;;;;;;;11.43;10.83;;;20.00;39.30;;;;;;4930218;29;20480;-76
2023/04/14 14:28:20;;;;;;;11.13;10.50;;;19.90;39.80;;;;;;4930318;29;20924;-75
2023/04/14 14:30:47;;;;;;;10.50;10.10;;;18.80;39.50;;;;;;4930183;29;21174;-75
2023/04/14 14:33:14;;;;;;;10.47;9.97;;;18.10;40.00;;;;;;4930311;29;20449;-75
2023/04/14 14:35:42;;;;;;;10.57;10.13;;;17.70;41.10;;;;;;4929954;29;20515;-75
2023/04/14 14:38:09;;;;;;;10.90;10.30;;;17.40;41.10;;;;;;4930523;29;20460;-74
2023/04/14 14:40:36;;;;;;;10.40;10.00;;;17.00;41.80;;;;;;4932252;29;20453;-74
2023/04/14 14:43:02;;;;;;;9.70;9.40;;;16.90;41.90;;;;;;4934720;29;20681;-75
2023/04/14 14:45:29;;;;;;;10.63;10.17;;;16.90;42.20;;;;;;4933176;29;20966;-75
2023/04/14 14:47:56;;;;;;;10.50;10.10;;;16.90;42.00;;;;;;4933663;29;20815;-75
2023/04/14 14:50:22;;;;;;;9.87;9.47;;;16.80;41.80;;;;;;4933377;29;20476;-76
2023/04/14 14:52:50;;;;;;;10.70;10.20;;;16.50;42.30;;;;;;4932806;29;20528;-75
2023/04/14 14:55:17;;;;;;;9.70;9.30;;;16.50;42.90;;;;;;4933009;29;21015;-75
2023/04/14 14:57:44;;;;;;;11.37;10.87;;;16.60;42.80;;;;;;4932676;29;20671;-73
2023/04/14 15:00:12;;;;;;;11.37;10.97;;;16.60;42.10;;;;;;4933508;29;20461;-75
2023/04/14 15:02:38;;;;;;;11.43;10.83;;;16.50;42.20;;;;;;4931989;29;20458;-75
2023/04/14 15:05:07;;;;;;;11.13;10.60;;;16.40;41.60;;;;;;4933107;29;20457;-74
2023/04/14 15:07:33;;;;;;;11.10;10.50;;;16.00;42.20;;;;;;4932816;29;20457;-74
2023/04/14 15:10:03;;;;;;;10.63;10.23;;;16.00;42.70;;;;;;4932765;29;20484;-75
2023/04/14 15:12:30;;;;;;;10.87;10.13;;;16.20;42.40;;;;;;4932331;29;20830;-76
2023/04/14 15:14:56;;;;;;;10.77;10.37;;;16.30;42.80;;;;;;4932392;29;20489;-76
2023/04/14 15:17:23;;;;;;;10.60;10.03;;;16.30;42.10;;;;;;4932988;29;20552;-76
2023/04/14 15:19:50;;;;;;;13.53;12.73;;;16.20;42.20;;;;;;4932898;29;20461;-74
2023/04/14 15:22:16;;;;;;;11.90;11.37;;;16.10;42.10;;;;;;4932355;29;20967;-74
2023/04/14 15:24:43;;;;;;;11.30;10.83;;;16.00;42.00;;;;;;4932140;29;20460;-76
2023/04/14 15:27:11;;;;;;;11.13;10.73;;;15.90;42.60;;;;;;4934616;29;20497;-76
2023/04/14 15:29:37;;;;;;;11.43;10.93;;;15.70;42.60;;;;;;4939319;29;20571;-73
2023/04/14 15:32:04;;;;;;;12.17;11.47;;;15.50;42.90;;;;;;4934514;29;20520;-72
2023/04/14 15:34:31;;;;;;;11.47;10.80;;;15.40;43.40;;;;;;4933263;29;20662;-74
2023/04/14 15:36:59;;;;;;;11.67;11.00;;;15.30;44.50;;;;;;4932726;29;20508;-74
2023/04/14 15:39:27;;;;;;;11.00;10.40;;;15.20;44.20;;;;;;4932557;29;20553;-73
2023/04/14 15:41:54;;;;;;;10.93;10.53;;;15.00;44.20;;;;;;4932545;29;20966;-74
2023/04/14 15:44:24;;;;;;;11.47;10.53;;;14.90;44.70;;;;;;4932351;29;20450;-75
2023/04/14 15:46:50;;;;;;;11.13;10.73;;;14.90;45.30;;;;;;4932332;29;20552;-75
2023/04/14 15:49:17;;;;;;;10.43;9.80;;;14.90;45.20;;;;;;4931991;29;20465;-75
2023/04/14 15:51:44;;;;;;;10.70;10.00;;;14.80;45.10;;;;;;4931015;29;20450;-74
2023/04/14 15:54:11;;;;;;;11.80;10.97;;;14.70;45.40;;;;;;4931862;29;20583;-74
2023/04/14 15:56:38;;;;;;;10.30;9.80;;;14.60;46.30;;;;;;4932320;29;20493;-74
2023/04/14 15:59:04;;;;;;;10.00;9.60;;;14.60;46.10;;;;;;4932159;29;20461;-75
2023/04/14 16:01:32;;;;;;;10.53;9.93;;;14.70;45.90;;;;;;4931834;29;20461;-75
2023/04/14 16:03:59;;;;;;;10.93;10.43;;;14.70;45.90;;;;;;4931739;29;20568;-75
2023/04/14 16:06:27;;;;;;;12.57;11.93;;;14.80;46.10;;;;;;4931840;29;20505;-75
2023/04/14 16:08:54;;;;;;;11.87;11.27;;;14.80;45.30;;;;;;4932151;29;20489;-76
2023/04/14 16:11:20;;;;;;;10.60;10.13;;;14.80;44.90;;;;;;4932042;29;20548;-76
2023/04/14 16:13:47;;;;;;;11.13;10.57;;;14.90;45.00;;;;;;4931854;29;20470;-74
2023/04/14 16:16:15;;;;;;;10.90;10.50;;;14.90;45.30;;;;;;4931376;29;21078;-76
2023/04/14 16:18:43;;;;;;;11.23;10.60;;;14.90;45.20;;;;;;4931388;29;20488;-75
2023/04/14 16:21:10;;;;;;;10.93;10.43;;;14.90;44.80;;;;;;4931689;29;20948;-75
2023/04/14 16:23:37;;;;;;;10.90;10.20;;;14.90;44.60;;;;;;4931824;29;20453;-75
2023/04/14 16:26:04;;;;;;;10.90;10.50;;;14.80;45.40;;;;;;4931186;29;20474;-75
2023/04/14 16:28:31;;;;;;;12.20;11.70;;;14.80;46.20;;;;;;4931294;29;20544;-74
2023/04/14 16:30:59;;;;;;;10.73;10.20;;;14.80;46.50;;;;;;4931560;29;20457;-76
2023/04/14 16:33:26;;;;;;;11.50;10.90;;;14.80;47.30;;;;;;4931442;29;20460;-75
2023/04/14 16:35:55;;;;;;;10.83;10.20;;;14.80;48.10;;;;;;4931470;29;20496;-75
2023/04/14 16:38:22;;;;;;;11.43;10.97;;;14.70;48.80;;;;;;4931616;29;20458;-75
2023/04/14 16:40:56;;;;;;;11.27;10.70;;;14.80;47.50;;;;;;4931092;29;20500;-74
2023/04/14 16:43:23;;;;;;;10.83;10.33;;;14.80;45.20;;;;;;4931423;29;20968;-74
2023/04/14 16:45:50;;;;;;;10.10;9.70;;;14.80;45.60;;;;;;4931388;29;20454;-74
2023/04/14 16:48:16;;;;;;;11.37;10.77;;;14.80;46.00;;;;;;4931087;29;20468;-75
2023/04/14 16:50:45;;;;;;;11.37;10.90;;;14.70;46.00;;;;;;4930933;29;20819;-74
2023/04/14 16:53:13;;;;;;;11.50;10.80;;;14.70;45.30;;;;;;4931011;29;20461;-75
2023/04/14 16:55:40;;;;;;;10.43;9.83;;;14.60;44.70;;;;;;4931071;29;20482;-75
2023/04/14 16:58:08;;;;;;;10.10;9.60;;;14.60;44.90;;;;;;4931235;29;20453;-76